createdAt,value
2019-04-09T00:00:52.091Z,100701.64
2019-04-09T00:03:21.019Z,100698.31
2019-04-09T00:05:50.053Z,100695.06
2019-04-09T00:08:18.982Z,100701.09
2019-04-09T00:10:47.690Z,100696.33
2019-04-09T00:13:16.996Z,100691.52
2019-04-09T00:15:45.762Z,100697.41
2019-04-09T00:18:15.745Z,100696.35
2019-04-09T00:20:44.855Z,100701.23
2019-04-09T00:23:13.742Z,100702.65
2019-04-09T00:25:42.574Z,100696.09
2019-04-09T00:28:11.884Z,100696.63
2019-04-09T00:30:40.420Z,100692.53
2019-04-09T00:33:09.908Z,100689.98
2019-04-09T00:35:38.813Z,100695.79
2019-04-09T00:38:07.187Z,100690.29
2019-04-09T00:40:35.686Z,100699.36
2019-04-09T00:43:04.132Z,100698.51
2019-04-09T00:45:32.618Z,100702.56
2019-04-09T00:48:01.050Z,100698.83
2019-04-09T00:50:29.553Z,100708.30
2019-04-09T00:52:58.917Z,100704.44
2019-04-09T00:55:27.459Z,100701.41
2019-04-09T00:57:56.077Z,100705.74
2019-04-09T01:00:26.227Z,100709.73
2019-04-09T01:02:54.681Z,100703.62
2019-04-09T01:05:23.160Z,100707.19
2019-04-09T01:07:51.692Z,100715.23
2019-04-09T01:10:20.179Z,100711.22
2019-04-09T01:12:48.644Z,100714.50
2019-04-09T01:15:17.122Z,100719.38
2019-04-09T01:17:45.873Z,100725.73
2019-04-09T01:20:15.575Z,100724.80
2019-04-09T01:22:44.093Z,100715.30
2019-04-09T01:25:14.594Z,100715.90
2019-04-09T01:27:45.709Z,100716.41
2019-04-09T01:30:34.225Z,100716.75
2019-04-09T01:33:05.175Z,100716.13
2019-04-09T01:35:53.602Z,100717.73
2019-04-09T01:38:27.390Z,100721.22
2019-04-09T01:41:12.919Z,100727.77
2019-04-09T01:43:52.164Z,100722.55
2019-04-09T01:46:33.829Z,100719.86
2019-04-09T01:49:12.950Z,100720.62
2019-04-09T01:52:02.015Z,100719.28
2019-04-09T01:54:32.215Z,100722.30
2019-04-09T01:57:24.403Z,100717.64
2019-04-09T01:59:58.935Z,100719.25
2019-04-09T02:02:42.003Z,100714.56
2019-04-09T02:05:15.300Z,100722.58
2019-04-09T02:08:03.661Z,100732.93
2019-04-09T02:10:33.801Z,100739.92
2019-04-09T02:13:03.945Z,100739.59
2019-04-09T02:15:34.945Z,100736.80
2019-04-09T02:18:05.262Z,100729.26
2019-04-09T02:20:52.129Z,100729.83
2019-04-09T02:23:32.080Z,100735.11
2019-04-09T02:26:14.557Z,100738.90
2019-04-09T02:28:56.529Z,100735.39
2019-04-09T02:31:44.869Z,100736.92
2019-04-09T02:34:18.865Z,100733.62
2019-04-09T02:36:55.242Z,100737.45
2019-04-09T02:39:31.132Z,100738.81
2019-04-09T02:42:02.020Z,100746.31
2019-04-09T02:44:35.277Z,100745.38
2019-04-09T02:47:11.559Z,100737.91
2019-04-09T02:49:56.654Z,100751.12
2019-04-09T02:52:43.563Z,100750.92
2019-04-09T02:55:14.374Z,100753.16
2019-04-09T02:58:00.542Z,100752.33
2019-04-09T03:00:46.502Z,100740.34
2019-04-09T03:03:17.116Z,100748.09
2019-04-09T03:05:53.514Z,100760.13
2019-04-09T03:08:39.701Z,100747.84
2019-04-09T03:11:10.305Z,100745.66
2019-04-09T03:13:59.579Z,100757.86
2019-04-09T03:16:38.443Z,100763.73
2019-04-09T03:19:18.406Z,100768.75
2019-04-09T03:21:54.738Z,100770.39
2019-04-09T03:24:28.112Z,100767.87
2019-04-09T03:27:16.195Z,100764.05
2019-04-09T03:30:03.534Z,100771.86
2019-04-09T03:32:35.620Z,100770.46
2019-04-09T03:35:07.888Z,100764.88
2019-04-09T03:37:37.991Z,100766.81
2019-04-09T03:40:09.121Z,100766.37
2019-04-09T03:42:42.194Z,100780.49
2019-04-09T03:45:18.446Z,100777.36
2019-04-09T03:47:57.449Z,100792.69
2019-04-09T03:50:28.515Z,100791.61
2019-04-09T03:53:01.276Z,100789.48
2019-04-09T03:55:32.220Z,100789.87
2019-04-09T03:58:16.339Z,100793.17
2019-04-09T04:00:50.232Z,100803.22
2019-04-09T04:03:20.523Z,100799.14
2019-04-09T04:05:50.653Z,100809.58
2019-04-09T04:08:26.718Z,100809.16
2019-04-09T04:10:57.336Z,100814.94
2019-04-09T04:13:30.988Z,100819.00
2019-04-09T04:16:01.486Z,100825.31
2019-04-09T04:18:34.533Z,100823.14
2019-04-09T04:21:04.679Z,100829.60
2019-04-09T04:23:41.101Z,100831.03
2019-04-09T04:26:11.664Z,100824.34
2019-04-09T04:28:58.713Z,100831.98
2019-04-09T04:31:44.431Z,100828.91
2019-04-09T04:34:23.378Z,100827.41
2019-04-09T04:36:53.504Z,100827.73
2019-04-09T04:39:24.493Z,100827.02
2019-04-09T04:41:54.776Z,100838.09
2019-04-09T04:44:39.912Z,100832.80
2019-04-09T04:47:19.154Z,100833.27
2019-04-09T04:50:05.802Z,100835.52
2019-04-09T04:52:44.649Z,100841.45
2019-04-09T04:55:59.473Z,100844.03
2019-04-09T04:58:41.112Z,100840.28
2019-04-09T05:01:13.733Z,100842.86
2019-04-09T05:03:46.743Z,100854.67
2019-04-09T05:06:22.649Z,100858.94
2019-04-09T05:09:08.735Z,100859.89
2019-04-09T05:11:55.150Z,100863.19
2019-04-09T05:14:31.817Z,100868.15
2019-04-09T05:17:12.018Z,100864.06
2019-04-09T05:20:00.584Z,100869.34
2019-04-09T05:22:47.063Z,100873.19
2019-04-09T05:25:27.219Z,100876.44
2019-04-09T05:27:58.343Z,100883.75
2019-04-09T05:30:46.306Z,100878.63
2019-04-09T05:33:22.688Z,100884.52
2019-04-09T05:35:59.299Z,100897.87
2019-04-09T05:38:44.325Z,100886.83
2019-04-09T05:41:30.478Z,100887.45
2019-04-09T05:44:03.032Z,100890.83
2019-04-09T05:46:33.132Z,100898.41
2019-04-09T05:49:05.742Z,100895.97
2019-04-09T05:51:39.590Z,100893.94
2019-04-09T05:54:19.593Z,100889.16
2019-04-09T05:56:52.828Z,100891.50
2019-04-09T05:59:37.762Z,100893.44
2019-04-09T06:02:25.912Z,100892.48
2019-04-09T06:05:12.207Z,100895.19
2019-04-09T06:07:42.972Z,100896.25
2019-04-09T06:10:11.601Z,100898.92
2019-04-09T06:12:40.703Z,100900.64
2019-04-09T06:15:09.203Z,100913.80
2019-04-09T06:17:37.742Z,100908.63
2019-04-09T06:20:07.067Z,100914.03
2019-04-09T06:22:35.569Z,100904.19
2019-04-09T06:25:05.018Z,100898.73
2019-04-09T06:27:33.503Z,100908.82
2019-04-09T06:30:02.897Z,100913.27
2019-04-09T06:32:49.291Z,100917.14
2019-04-09T06:35:34.499Z,100920.58
2019-04-09T06:38:07.294Z,100912.94
2019-04-09T06:40:39.636Z,100923.96
2019-04-09T06:43:12.853Z,100920.27
2019-04-09T06:45:45.036Z,100928.08
2019-04-09T06:48:15.338Z,100918.55
2019-04-09T06:50:54.689Z,100932.70
2019-04-09T06:53:27.787Z,100932.58
2019-04-09T06:56:07.378Z,100926.39
2019-04-09T06:58:38.597Z,100930.12
2019-04-09T07:01:11.433Z,100921.13
2019-04-09T07:03:57.527Z,100926.50
2019-04-09T07:06:31.272Z,100924.59
2019-04-09T07:09:01.874Z,100920.98
2019-04-09T07:11:46.825Z,100917.84
2019-04-09T07:14:26.482Z,100923.62
2019-04-09T07:17:12.556Z,100919.42
2019-04-09T07:19:45.598Z,100924.66
2019-04-09T07:22:34.033Z,100918.80
2019-04-09T07:25:04.124Z,100922.66
2019-04-09T07:27:37.243Z,100918.16
2019-04-09T07:30:13.724Z,100922.20
2019-04-09T07:32:59.346Z,100919.31
2019-04-09T07:35:38.282Z,100927.84
2019-04-09T07:38:18.370Z,100924.33
2019-04-09T07:41:08.198Z,100935.31
2019-04-09T07:43:38.908Z,100930.52
2019-04-09T07:46:20.943Z,100928.27
2019-04-09T07:49:09.721Z,100928.50
2019-04-09T07:51:45.879Z,100928.79
2019-04-09T07:54:23.615Z,100933.54
2019-04-09T07:57:04.252Z,100928.27
2019-04-09T07:59:36.532Z,100937.23
2019-04-09T08:02:06.344Z,100933.72
2019-04-09T08:04:42.655Z,100935.09
2019-04-09T08:07:24.178Z,100936.98
2019-04-09T08:09:57.749Z,100933.75
2019-04-09T08:12:33.647Z,100934.30
2019-04-09T08:15:04.518Z,100943.03
2019-04-09T08:17:50.282Z,100944.64
2019-04-09T08:20:32.488Z,100940.32
2019-04-09T08:23:11.448Z,100943.59
2019-04-09T08:25:46.306Z,100945.48
2019-04-09T08:28:25.291Z,100945.78
2019-04-09T08:31:01.531Z,100938.37
2019-04-09T08:33:51.162Z,100944.38
2019-04-09T08:36:21.355Z,100940.19
2019-04-09T08:39:01.268Z,100946.13
2019-04-09T08:41:29.053Z,100946.03
2019-04-09T08:44:05.460Z,100948.59
2019-04-09T08:46:34.460Z,100948.50
2019-04-09T08:49:04.612Z,100950.39
2019-04-09T08:51:39.290Z,100948.30
2019-04-09T08:54:12.103Z,100948.13
2019-04-09T08:56:53.169Z,100941.07
2019-04-09T08:59:41.333Z,100945.16
2019-04-09T09:02:22.714Z,100949.18
2019-04-09T09:05:05.558Z,100955.27
2019-04-09T09:07:30.705Z,100951.67
2019-04-09T09:10:04.080Z,100955.51
2019-04-09T09:12:38.867Z,100955.79
2019-04-09T09:15:16.320Z,100949.91
2019-04-09T09:18:01.418Z,100948.84
2019-04-09T09:20:49.399Z,100947.78
2019-04-09T09:23:22.412Z,100956.88
2019-04-09T09:26:08.780Z,100953.87
2019-04-09T09:28:57.722Z,100949.75
2019-04-09T09:31:33.900Z,100960.50
2019-04-09T09:34:06.448Z,100951.95
2019-04-09T09:36:38.142Z,100954.27
2019-04-09T09:39:15.142Z,100955.63
2019-04-09T09:41:50.986Z,100963.88
2019-04-09T09:44:27.044Z,100964.45
2019-04-09T09:46:57.159Z,100960.44
2019-04-09T09:49:31.915Z,100957.30
2019-04-09T09:52:08.905Z,100961.46
2019-04-09T09:54:50.859Z,100967.02
2019-04-09T09:57:27.908Z,100963.66
2019-04-09T10:00:06.033Z,100961.09
2019-04-09T10:02:39.148Z,100946.55
2019-04-09T10:05:20.360Z,100957.88
2019-04-09T10:08:03.056Z,100955.25
2019-04-09T10:10:32.008Z,100959.88
2019-04-09T10:13:04.931Z,100950.97
2019-04-09T10:15:51.136Z,100946.81
2019-04-09T10:18:21.321Z,100947.25
2019-04-09T10:20:57.301Z,100947.37
2019-04-09T10:23:39.964Z,100949.01
2019-04-09T10:26:17.125Z,100944.19
2019-04-09T10:28:58.316Z,100944.41
2019-04-09T10:31:40.087Z,100942.59
2019-04-09T10:34:06.129Z,100935.44
2019-04-09T10:36:45.551Z,100939.31
2019-04-09T10:39:16.093Z,100932.50
2019-04-09T10:41:56.306Z,100936.81
2019-04-09T10:44:26.749Z,100935.80
2019-04-09T10:47:13.962Z,100927.79
2019-04-09T10:49:43.807Z,100926.06
2019-04-09T10:52:22.268Z,100926.36
2019-04-09T10:55:05.922Z,100919.75
2019-04-09T10:57:36.874Z,100929.27
2019-04-09T11:00:25.743Z,100930.48
2019-04-09T11:03:14.570Z,100923.84
2019-04-09T11:05:48.851Z,100922.75
2019-04-09T11:08:17.145Z,100921.33
2019-04-09T11:10:56.845Z,100928.22
2019-04-09T11:13:30.182Z,100928.17
2019-04-09T11:16:03.453Z,100932.83
2019-04-09T11:18:39.422Z,100939.56
2019-04-09T11:21:12.436Z,100942.78
2019-04-09T11:24:00.008Z,100930.84
2019-04-09T11:26:32.288Z,100937.04
2019-04-09T11:29:35.070Z,100934.66
2019-04-09T11:32:09.534Z,100937.78
2019-04-09T11:34:36.952Z,100934.09
2019-04-09T11:37:07.641Z,100938.52
2019-04-09T11:39:38.548Z,100941.41
2019-04-09T11:42:15.172Z,100933.38
2019-04-09T11:45:01.891Z,100935.87
2019-04-09T11:47:44.212Z,100937.77
2019-04-09T11:50:20.506Z,100937.68
2019-04-09T11:52:56.580Z,100938.14
2019-04-09T11:55:33.434Z,100931.14
2019-04-09T11:58:13.165Z,100946.44
2019-04-09T12:00:52.657Z,100936.25
2019-04-09T12:03:23.278Z,100936.85
2019-04-09T12:05:56.851Z,100933.41
2019-04-09T12:08:26.975Z,100936.23
2019-04-09T12:10:57.064Z,100930.70
2019-04-09T12:13:30.741Z,100932.45
2019-04-09T12:16:15.964Z,100949.22
2019-04-09T12:18:46.496Z,100951.23
2019-04-09T12:21:29.135Z,100944.33
2019-04-09T12:24:15.291Z,100946.42
2019-04-09T12:27:03.131Z,100947.42
2019-04-09T12:29:35.809Z,100958.16
2019-04-09T12:32:21.653Z,100954.72
2019-04-09T12:34:52.885Z,100948.27
2019-04-09T12:37:23.708Z,100969.64
2019-04-09T12:39:54.028Z,100957.94
2019-04-09T12:42:26.780Z,100966.45
2019-04-09T12:45:03.040Z,100970.14
2019-04-09T12:47:36.380Z,100970.49
2019-04-09T12:50:16.529Z,100965.19
2019-04-09T12:52:56.535Z,100967.47
2019-04-09T12:55:26.815Z,100971.22
2019-04-09T12:58:02.526Z,100963.22
2019-04-09T13:00:32.743Z,100964.06
2019-04-09T13:03:06.884Z,100970.39
2019-04-09T13:05:49.477Z,100959.40
2019-04-09T13:08:23.280Z,100959.25
2019-04-09T13:11:08.543Z,100955.62
2019-04-09T13:13:41.340Z,100949.37
2019-04-09T13:16:23.923Z,100958.44
2019-04-09T13:19:11.256Z,100956.67
2019-04-09T13:21:41.458Z,100959.30
2019-04-09T13:24:11.562Z,100957.33
2019-04-09T13:26:41.735Z,100943.18
2019-04-09T13:29:12.498Z,100945.25
2019-04-09T13:31:52.827Z,100936.98
2019-04-09T13:34:23.681Z,100927.70
2019-04-09T13:36:56.579Z,100930.52
2019-04-09T13:39:27.357Z,100935.27
2019-04-09T13:41:57.644Z,100927.22
2019-04-09T13:44:27.880Z,100924.74
2019-04-09T13:47:03.821Z,100929.70
2019-04-09T13:49:52.584Z,100937.72
2019-04-09T13:52:32.022Z,100927.44
2019-04-09T13:55:02.118Z,100928.11
2019-04-09T13:57:31.792Z,100928.47
2019-04-09T14:00:00.671Z,100917.48
2019-04-09T14:02:30.005Z,100930.09
2019-04-09T14:05:10.358Z,100909.39
2019-04-09T14:07:39.548Z,100902.53
2019-04-09T14:10:10.268Z,100906.73
2019-04-09T14:12:39.146Z,100916.08
2019-04-09T14:15:09.993Z,100920.03
2019-04-09T14:17:38.970Z,100907.81
2019-04-09T14:20:09.506Z,100904.25
2019-04-09T14:22:38.343Z,100894.73
2019-04-09T14:25:10.380Z,100903.27
2019-04-09T14:27:41.045Z,100897.81
2019-04-09T14:30:11.231Z,100898.83
2019-04-09T14:32:40.752Z,100892.17
2019-04-09T14:35:09.767Z,100894.64
2019-04-09T14:37:40.345Z,100890.11
2019-04-09T14:40:09.814Z,100882.81
2019-04-09T14:42:38.929Z,100886.03
2019-04-09T14:45:07.858Z,100887.49
2019-04-09T14:47:37.095Z,100888.90
2019-04-09T14:50:09.512Z,100886.17
2019-04-09T14:52:50.669Z,100887.34
2019-04-09T14:55:08.644Z,100887.16
2019-04-09T14:57:37.508Z,100887.85
2019-04-09T15:00:09.969Z,100882.32
2019-04-09T15:02:38.602Z,100886.89
2019-04-09T15:05:09.757Z,100880.66
2019-04-09T15:07:39.570Z,100888.99
2019-04-09T15:10:09.197Z,100887.45
2019-04-09T15:12:38.036Z,100879.23
2019-04-09T15:15:08.571Z,100880.52
2019-04-09T15:17:37.459Z,100887.18
2019-04-09T15:20:06.851Z,100887.52
2019-04-09T15:22:36.539Z,100879.99
2019-04-09T15:25:07.270Z,100871.02
2019-04-09T15:27:35.850Z,100869.39
2019-04-09T15:30:06.291Z,100874.13
2019-04-09T15:32:35.361Z,100882.25
2019-04-09T15:35:06.481Z,100873.63
2019-04-09T15:37:37.417Z,100878.67
2019-04-09T15:40:06.809Z,100873.66
2019-04-09T15:42:35.468Z,100874.39
2019-04-09T15:45:06.741Z,100876.95
2019-04-09T15:47:35.800Z,100872.54
2019-04-09T15:50:08.728Z,100871.03
2019-04-09T15:52:38.718Z,100871.03
2019-04-09T15:55:10.021Z,100872.89
2019-04-09T15:57:37.897Z,100871.85
2019-04-09T16:00:08.476Z,100868.33
2019-04-09T16:02:36.982Z,100873.09
2019-04-09T16:05:07.039Z,100877.30
2019-04-09T16:07:36.158Z,100879.20
2019-04-09T16:10:06.387Z,100877.66
2019-04-09T16:12:34.929Z,100868.98
2019-04-09T16:15:04.936Z,100873.83
2019-04-09T16:17:33.547Z,100870.72
2019-04-09T16:20:02.103Z,100862.60
2019-04-09T16:22:30.756Z,100872.23
2019-04-09T16:24:59.439Z,100873.41
2019-04-09T16:27:28.315Z,100869.63
2019-04-09T16:29:56.971Z,100868.79
2019-04-09T16:32:25.888Z,100876.05
2019-04-09T16:34:54.690Z,100878.31
2019-04-09T16:37:25.677Z,100875.84
2019-04-09T16:39:54.602Z,100883.50
2019-04-09T16:42:34.496Z,100882.16
2019-04-09T16:45:00.812Z,100878.77
2019-04-09T16:47:24.409Z,100877.02
2019-04-09T16:49:54.132Z,100883.27
2019-04-09T16:52:22.886Z,100883.55
2019-04-09T16:54:51.535Z,100887.63
2019-04-09T16:57:21.451Z,100886.23
2019-04-09T16:59:50.587Z,100894.14
2019-04-09T17:02:19.235Z,100897.91
2019-04-09T17:04:47.709Z,100896.27
2019-04-09T17:07:17.611Z,100897.42
2019-04-09T17:09:46.160Z,100897.76
2019-04-09T17:12:15.755Z,100891.88
2019-04-09T17:14:45.967Z,100896.09
2019-04-09T17:17:15.342Z,100897.52
2019-04-09T17:19:43.957Z,100898.56
2019-04-09T17:22:12.527Z,100899.98
2019-04-09T17:24:41.317Z,100898.94
2019-04-09T17:27:10.017Z,100903.05
2019-04-09T17:29:39.385Z,100906.61
2019-04-09T17:32:08.115Z,100906.10
2019-04-09T17:34:38.089Z,100906.15
2019-04-09T17:37:07.270Z,100903.09
2019-04-09T17:39:35.917Z,100904.41
2019-04-09T17:42:09.712Z,100910.34
2019-04-09T17:44:35.428Z,100913.72
2019-04-09T17:47:04.102Z,100914.83
2019-04-09T17:49:33.355Z,100917.94
2019-04-09T17:52:02.012Z,100911.47
2019-04-09T17:54:30.641Z,100914.48
2019-04-09T17:56:59.374Z,100924.45
2019-04-09T17:59:29.096Z,100920.09
2019-04-09T18:01:57.909Z,100926.04
2019-04-09T18:04:40.125Z,100930.48
2019-04-09T18:06:57.752Z,100933.48
2019-04-09T18:09:29.368Z,100926.06
2019-04-09T18:11:59.596Z,100934.25
2019-04-09T18:14:29.070Z,100934.63
2019-04-09T18:17:05.011Z,100937.13
2019-04-09T18:19:33.959Z,100943.47
2019-04-09T18:22:03.115Z,100948.41
2019-04-09T18:24:32.250Z,100951.70
2019-04-09T18:27:03.209Z,100950.05
2019-04-09T18:29:33.416Z,100952.30
2019-04-09T18:32:03.153Z,100948.20
2019-04-09T18:34:34.007Z,100958.06
2019-04-09T18:37:03.765Z,100960.01
2019-04-09T18:39:33.888Z,100964.09
2019-04-09T18:42:03.202Z,100968.48
2019-04-09T18:44:31.804Z,100969.86
2019-04-09T18:47:00.298Z,100967.38
2019-04-09T18:49:29.583Z,100967.64
2019-04-09T18:52:02.906Z,100979.94
2019-04-09T18:54:34.480Z,100977.77
2019-04-09T18:57:03.736Z,100989.80
2019-04-09T18:59:33.932Z,100988.44
2019-04-09T19:02:03.716Z,100991.43
2019-04-09T19:04:32.631Z,101001.55
2019-04-09T19:07:01.943Z,100993.36
2019-04-09T19:09:30.793Z,100996.07
2019-04-09T19:12:00.361Z,100999.56
2019-04-09T19:14:30.168Z,101002.83
2019-04-09T19:16:58.992Z,101004.75
2019-04-09T19:19:27.691Z,101005.84
2019-04-09T19:21:56.888Z,101004.43
2019-04-09T19:24:25.450Z,101005.28
2019-04-09T19:26:54.907Z,101004.98
2019-04-09T19:29:23.571Z,101014.55
2019-04-09T19:32:03.887Z,101016.75
2019-04-09T19:34:50.224Z,101018.92
2019-04-09T19:37:19.594Z,101021.33
2019-04-09T19:40:06.015Z,101013.95
2019-04-09T19:42:35.484Z,101024.29
2019-04-09T19:45:06.656Z,101022.86
2019-04-09T19:47:35.537Z,101024.55
2019-04-09T19:50:06.076Z,101023.63
2019-04-09T19:52:35.510Z,101028.11
2019-04-09T19:55:06.242Z,101024.20
2019-04-09T19:57:35.744Z,101025.88
2019-04-09T20:00:06.759Z,101015.19
2019-04-09T20:02:35.719Z,101025.00
2019-04-09T20:05:06.308Z,101021.73
2019-04-09T20:07:35.228Z,101024.77
2019-04-09T20:10:06.953Z,101034.84
2019-04-09T20:12:35.810Z,101030.92
2019-04-09T20:15:04.811Z,101029.05
2019-04-09T20:17:33.348Z,101035.15
2019-04-09T20:20:02.066Z,101027.97
2019-04-09T20:22:31.600Z,101034.27
2019-04-09T20:25:00.278Z,101027.63
2019-04-09T20:27:28.805Z,101026.86
2019-04-09T20:29:57.373Z,101025.41
2019-04-09T20:32:26.427Z,101030.16
2019-04-09T20:35:04.261Z,101028.16
2019-04-09T20:37:25.174Z,101029.24
2019-04-09T20:39:53.653Z,101032.77
2019-04-09T20:42:22.540Z,101026.48
2019-04-09T20:44:52.392Z,101028.10
2019-04-09T20:47:20.929Z,101031.02
2019-04-09T20:49:49.361Z,101026.48
2019-04-09T20:52:17.899Z,101029.37
2019-04-09T20:54:51.243Z,101037.84
2019-04-09T20:57:19.844Z,101039.73
2019-04-09T21:00:06.132Z,101034.72
2019-04-09T21:02:40.390Z,101039.13
2019-04-09T21:05:11.963Z,101038.27
2019-04-09T21:07:40.510Z,101037.98
2019-04-09T21:10:14.993Z,101029.80
2019-04-09T21:12:48.856Z,101035.75
2019-04-09T21:15:18.535Z,101030.84
2019-04-09T21:17:47.144Z,101038.11
2019-04-09T21:20:16.217Z,101027.50
2019-04-09T21:22:45.905Z,101032.23
2019-04-09T21:25:16.201Z,101041.38
2019-04-09T21:27:45.610Z,101035.34
2019-04-09T21:30:14.258Z,101033.77
2019-04-09T21:32:42.724Z,101036.38
2019-04-09T21:35:11.175Z,101041.08
2019-04-09T21:37:40.131Z,101043.23
2019-04-09T21:40:08.978Z,101041.05
2019-04-09T21:42:38.520Z,101045.99
2019-04-09T21:45:07.606Z,101041.73
2019-04-09T21:47:36.534Z,101047.08
2019-04-09T21:50:06.911Z,101046.55
2019-04-09T21:52:35.401Z,101047.37
2019-04-09T21:55:05.263Z,101052.92
2019-04-09T21:57:35.755Z,101048.25
2019-04-09T22:00:14.372Z,101058.19
2019-04-09T22:02:43.335Z,101060.86
2019-04-09T22:05:12.150Z,101065.88
2019-04-09T22:07:41.372Z,101066.36
2019-04-09T22:10:11.557Z,101071.44
2019-04-09T22:12:40.131Z,101070.13
2019-04-09T22:15:08.787Z,101067.02
2019-04-09T22:17:38.304Z,101071.69
2019-04-09T22:20:07.809Z,101066.97
2019-04-09T22:22:37.483Z,101065.48
2019-04-09T22:25:05.975Z,101064.31
2019-04-09T22:27:35.440Z,101067.84
2019-04-09T22:30:06.083Z,101062.34
2019-04-09T22:32:34.574Z,101057.57
2019-04-09T22:35:04.430Z,101068.34
2019-04-09T22:37:34.252Z,101062.06
2019-04-09T22:40:04.335Z,101068.27
2019-04-09T22:42:33.761Z,101070.76
2019-04-09T22:45:02.365Z,101062.30
2019-04-09T22:47:31.278Z,101064.13
2019-04-09T22:49:59.838Z,101066.81
2019-04-09T22:52:28.546Z,101062.97
2019-04-09T22:54:58.628Z,101060.92
2019-04-09T22:57:28.243Z,101062.12
2019-04-09T22:59:57.807Z,101058.45
2019-04-09T23:02:34.342Z,101065.31
2019-04-09T23:05:04.701Z,101064.50
2019-04-09T23:07:34.789Z,101061.37
2019-04-09T23:10:07.826Z,101061.84
2019-04-09T23:12:45.994Z,101064.47
2019-04-09T23:15:19.246Z,101058.86
2019-04-09T23:17:48.359Z,101057.89
2019-04-09T23:20:16.894Z,101058.06
2019-04-09T23:22:45.352Z,101061.37
2019-04-09T23:25:14.733Z,101064.26
2019-04-09T23:27:43.430Z,101062.82
2019-04-09T23:30:12.031Z,101059.20
2019-04-09T23:32:41.443Z,101051.48
2019-04-09T23:35:10.606Z,101062.95
2019-04-09T23:37:39.720Z,101055.20
2019-04-09T23:40:08.253Z,101063.23
2019-04-09T23:42:37.129Z,101061.85
2019-04-09T23:45:08.144Z,101063.84
2019-04-09T23:47:37.512Z,101059.50
2019-04-09T23:50:07.345Z,101059.52
2019-04-09T23:52:36.535Z,101062.55
2019-04-09T23:55:06.769Z,101055.66
2019-04-09T23:57:36.289Z,101061.70
